Terminal Aerodrome Forecast
Issued by NWS Pueblo, CO

Home | Current Version | Previous Version | Text Only | Print | Product List | Glossary On
Versions: 1 2 3 4 5 6 7 8 9 10 11 12 13 14 15 16 17 18 19 20 21 22 23 24 25 26 27 28 29
000
FTUS45 KPUB 301732
TAFPUB
TAF
KPUB 301732Z 3018/3118 12007KT P6SM SCT070 SCT150 SCT200
     FM302100 12011KT P6SM VCTS SCT070CB SCT140 BKN200
     FM310000 09010KT P6SM SCT070 BKN150
     FM310300 03005KT P6SM SCT150
     FM311000 02010KT P6SM BKN040=

USA.gov is the U.S. government's official web portal to all federal, state and local government web resources and services.